Diamond, West Virginia
Current Conditions -  °F | °C
As of 12:54 PM on Thursday 29 Jan 2015 (Local Time) from KCRW Reporting Station
Overcast Overcast  
Wind Chill: 38°   Ceiling: 5500
Heat Index: 44°   Visibility: 10mi
Dew Point: 34°   Wind: 12mph
Humidity: 68%   Direction: 190°S
Pressure: 29.91"   Gusts: 21mph
Location:  38.2384°N, 81.4817°W
Report Text: KCRW 291754Z 19010G18KT 10SM FEW033 BKN055 OVC090 07/01 A2991 RMK AO2 RAE50 SLP136 BKN V OVC THN SPOTS IOVC P0000 60011 T00670011 10067 21050 58023
Loading
Personal Weather Stations






























Interactive Weather Map New forecast layout! Learn more

10-Day Weather Forecast

Advertisements
Track Severe Weather on mobile